createdAt,value
2024-05-09T00:00:22.514Z,83.3239
2024-05-09T00:01:18.931Z,83.3056
2024-05-09T00:02:19.790Z,83.1131
2024-05-09T00:03:22.305Z,83.1964
2024-05-09T00:04:22.234Z,83.5196
2024-05-09T00:05:24.431Z,83.2725
2024-05-09T00:06:24.375Z,83.2789
2024-05-09T00:07:26.423Z,83.3221
2024-05-09T00:08:28.827Z,83.3926
2024-05-09T00:09:31.022Z,83.4539
2024-05-09T00:10:36.970Z,83.6235
2024-05-09T00:11:34.145Z,83.5241
2024-05-09T00:12:36.326Z,83.6667
2024-05-09T00:13:38.506Z,83.8463
2024-05-09T00:14:40.748Z,83.8419
2024-05-09T00:15:42.905Z,83.9152
2024-05-09T00:16:45.086Z,83.9181
2024-05-09T00:17:47.417Z,84.0543
2024-05-09T00:18:47.467Z,84.1072
2024-05-09T00:19:48.991Z,84.0128
2024-05-09T00:20:49.789Z,83.9670
2024-05-09T00:21:49.574Z,84.0670
2024-05-09T00:22:51.776Z,84.2653
2024-05-09T00:23:52.351Z,84.3122
2024-05-09T00:24:53.238Z,84.1999
2024-05-09T00:25:55.427Z,84.3066
2024-05-09T00:26:57.629Z,84.3966
2024-05-09T00:27:59.820Z,84.3692
2024-05-09T00:29:02.219Z,84.4553
2024-05-09T00:30:04.207Z,84.3955
2024-05-09T00:31:04.175Z,84.4924
2024-05-09T00:32:06.414Z,84.4856
2024-05-09T00:33:07.859Z,84.3757
2024-05-09T00:34:07.094Z,84.4795
2024-05-09T00:35:07.055Z,84.4128
2024-05-09T00:36:09.346Z,84.5889
2024-05-09T00:37:11.553Z,84.6237
2024-05-09T00:38:13.780Z,84.6567
2024-05-09T00:39:15.987Z,84.6389
2024-05-09T00:40:26.568Z,84.5215
2024-05-09T00:41:19.928Z,84.7704
2024-05-09T00:42:19.844Z,84.7680
2024-05-09T00:43:22.070Z,84.7039
2024-05-09T00:44:24.518Z,84.9002
2024-05-09T00:45:24.503Z,84.7468
2024-05-09T00:46:24.487Z,84.8192
2024-05-09T00:47:26.886Z,84.8399
2024-05-09T00:48:27.188Z,84.7846
2024-05-09T00:49:28.520Z,84.7605
2024-05-09T00:50:35.230Z,84.8350
2024-05-09T00:51:29.411Z,84.8183
2024-05-09T00:52:31.612Z,84.6577
2024-05-09T00:53:33.950Z,84.6564
2024-05-09T00:54:33.938Z,84.6062
2024-05-09T00:55:36.150Z,84.8155
2024-05-09T00:56:36.283Z,84.7827
2024-05-09T00:57:38.580Z,84.8166
2024-05-09T00:58:40.800Z,84.8964
2024-05-09T00:59:43.018Z,84.7717
2024-05-09T01:00:45.422Z,84.7352
2024-05-09T01:01:48.407Z,84.7177
2024-05-09T01:02:48.357Z,84.7686
2024-05-09T01:03:51.672Z,84.6680
2024-05-09T01:04:51.996Z,84.6191
2024-05-09T01:05:52.032Z,84.7728
2024-05-09T01:06:52.006Z,84.8298
2024-05-09T01:07:54.158Z,84.6809
2024-05-09T01:08:56.437Z,84.6604
2024-05-09T01:09:58.776Z,84.6646
2024-05-09T01:11:01.386Z,84.5634
2024-05-09T01:12:02.523Z,84.5611
2024-05-09T01:13:02.868Z,84.5236
2024-05-09T01:14:05.202Z,84.5808
2024-05-09T01:15:07.521Z,84.5499
2024-05-09T01:16:12.821Z,84.5540
2024-05-09T01:17:11.307Z,84.5379
2024-05-09T01:18:12.477Z,84.5856
2024-05-09T01:19:13.789Z,84.6261
2024-05-09T01:20:20.052Z,84.4969
2024-05-09T01:21:14.968Z,84.5017
2024-05-09T01:22:14.927Z,84.5954
2024-05-09T01:23:17.224Z,84.5482
2024-05-09T01:24:17.926Z,84.3571
2024-05-09T01:25:20.265Z,84.3623
2024-05-09T01:26:22.387Z,84.4594
2024-05-09T01:27:24.724Z,84.5019
2024-05-09T01:28:26.792Z,84.5302
2024-05-09T01:29:29.166Z,84.6045
2024-05-09T01:30:35.111Z,84.6187
2024-05-09T01:31:32.222Z,84.5975
2024-05-09T01:32:34.649Z,84.5994
2024-05-09T01:33:34.724Z,84.5921
2024-05-09T01:34:34.622Z,84.6678
2024-05-09T01:35:36.962Z,84.6253
2024-05-09T01:36:36.766Z,84.6183
2024-05-09T01:37:39.857Z,84.4687
2024-05-09T01:38:39.624Z,84.5061
2024-05-09T01:39:41.704Z,84.6408
2024-05-09T01:40:43.937Z,84.6776
2024-05-09T01:41:46.181Z,84.7467
2024-05-09T01:42:48.429Z,84.6231
2024-05-09T01:43:50.604Z,84.5866
2024-05-09T01:44:52.760Z,84.6738
2024-05-09T01:45:54.926Z,84.7289
2024-05-09T01:46:57.247Z,84.6488
2024-05-09T01:47:59.741Z,84.5481
2024-05-09T01:48:59.833Z,84.6072
2024-05-09T01:49:59.745Z,84.5418
2024-05-09T01:51:01.949Z,84.5343
2024-05-09T01:52:01.936Z,84.6871
2024-05-09T01:53:04.161Z,84.7770
2024-05-09T01:54:06.464Z,84.8146
2024-05-09T01:55:08.554Z,84.9183
2024-05-09T01:56:10.795Z,84.8089
2024-05-09T01:57:12.847Z,84.9379
2024-05-09T01:58:15.110Z,84.7142
2024-05-09T01:59:17.252Z,84.7129
2024-05-09T02:00:30.157Z,84.8382
2024-05-09T02:01:20.303Z,84.7399
2024-05-09T02:02:22.627Z,84.8633
2024-05-09T02:03:25.038Z,84.8454
2024-05-09T02:04:25.051Z,84.7592
2024-05-09T02:05:25.029Z,84.6960
2024-05-09T02:06:27.099Z,84.7737
2024-05-09T02:07:29.190Z,84.8949
2024-05-09T02:08:31.490Z,84.8537
2024-05-09T02:09:31.533Z,84.8326
2024-05-09T02:10:33.875Z,84.8732
2024-05-09T02:11:33.996Z,84.8457
2024-05-09T02:12:33.877Z,84.8977
2024-05-09T02:13:33.740Z,84.9689
2024-05-09T02:14:36.054Z,84.9716
2024-05-09T02:15:37.022Z,84.8781
2024-05-09T02:16:39.374Z,84.7422
2024-05-09T02:17:40.511Z,84.7811
2024-05-09T02:18:40.586Z,84.7720
2024-05-09T02:19:41.430Z,84.8189
2024-05-09T02:20:44.148Z,84.6099
2024-05-09T02:21:44.121Z,84.5510
2024-05-09T02:22:46.386Z,84.5501
2024-05-09T02:23:46.372Z,84.5698
2024-05-09T02:24:48.540Z,84.3890
2024-05-09T02:25:50.738Z,84.4838
2024-05-09T02:26:52.888Z,84.4565
2024-05-09T02:27:55.056Z,84.5510
2024-05-09T02:28:57.323Z,84.6650
2024-05-09T02:29:59.492Z,84.5355
2024-05-09T02:31:01.698Z,84.5661
2024-05-09T02:32:02.977Z,84.6059
2024-05-09T02:33:03.463Z,84.6864
2024-05-09T02:34:03.420Z,84.6480
2024-05-09T02:35:03.423Z,84.7082
2024-05-09T02:36:03.365Z,84.6470
2024-05-09T02:37:05.734Z,84.6934
2024-05-09T02:38:06.692Z,84.6012
2024-05-09T02:39:06.756Z,84.7103
2024-05-09T02:40:14.273Z,84.7475
2024-05-09T02:41:10.083Z,84.6716
2024-05-09T02:42:12.333Z,84.6472
2024-05-09T02:43:14.566Z,84.6397
2024-05-09T02:44:16.896Z,84.6557
2024-05-09T02:45:16.807Z,84.5943
2024-05-09T02:46:19.172Z,84.8841
2024-05-09T02:47:21.757Z,84.9060
2024-05-09T02:48:21.821Z,84.8973
2024-05-09T02:49:24.221Z,84.9517
2024-05-09T02:50:33.060Z,85.0109
2024-05-09T02:51:26.870Z,85.1083
2024-05-09T02:52:27.293Z,85.0647
2024-05-09T02:53:27.157Z,84.9055
2024-05-09T02:54:29.323Z,84.9206
2024-05-09T02:55:31.605Z,84.9829
2024-05-09T02:56:34.045Z,85.0603
2024-05-09T02:57:36.174Z,85.1698
2024-05-09T02:58:38.440Z,85.1453
2024-05-09T02:59:40.730Z,85.0801
2024-05-09T03:00:42.831Z,85.1348
2024-05-09T03:01:42.492Z,85.2746
2024-05-09T03:02:42.735Z,85.4393
2024-05-09T03:03:42.730Z,85.3283
2024-05-09T03:04:42.759Z,85.2424
2024-05-09T03:05:45.394Z,85.2761
2024-05-09T03:06:45.457Z,85.4220
2024-05-09T03:07:46.409Z,85.2925
2024-05-09T03:08:46.270Z,85.3689
2024-05-09T03:09:48.389Z,85.3277
2024-05-09T03:10:50.584Z,85.3796
2024-05-09T03:11:52.981Z,85.2859
2024-05-09T03:12:52.928Z,85.2658
2024-05-09T03:13:55.099Z,85.2289
2024-05-09T03:14:57.200Z,85.3499
2024-05-09T03:15:59.537Z,85.4056
2024-05-09T03:17:01.915Z,85.4142
2024-05-09T03:18:02.142Z,85.5099
2024-05-09T03:19:02.465Z,85.4636
2024-05-09T03:20:05.110Z,85.4788
2024-05-09T03:21:04.355Z,85.5121
2024-05-09T03:22:06.660Z,85.4945
2024-05-09T03:23:06.795Z,85.3800
2024-05-09T03:24:09.167Z,85.3554
2024-05-09T03:25:11.351Z,85.3935
2024-05-09T03:26:13.665Z,85.5610
2024-05-09T03:27:15.908Z,85.7031
2024-05-09T03:28:15.763Z,85.8089
2024-05-09T03:29:18.078Z,85.7717
2024-05-09T03:30:29.289Z,85.6963
2024-05-09T03:31:18.947Z,85.7539
2024-05-09T03:32:21.488Z,85.7070
2024-05-09T03:33:21.835Z,85.5990
2024-05-09T03:34:22.058Z,85.7645
2024-05-09T03:35:25.005Z,85.8307
2024-05-09T03:36:24.993Z,85.9007
2024-05-09T03:37:25.464Z,85.9825
2024-05-09T03:38:26.242Z,86.0473
2024-05-09T03:39:28.530Z,86.0104
2024-05-09T03:40:31.401Z,86.0098
2024-05-09T03:41:31.480Z,85.9726
2024-05-09T03:42:31.932Z,86.0105
2024-05-09T03:43:31.822Z,85.9478
2024-05-09T03:44:34.217Z,85.8386
2024-05-09T03:45:34.191Z,86.0081
2024-05-09T03:46:36.417Z,86.0235
2024-05-09T03:47:38.848Z,85.9027
2024-05-09T03:48:38.968Z,85.9616
2024-05-09T03:49:41.206Z,85.9219
2024-05-09T03:50:43.610Z,86.0269
2024-05-09T03:51:44.082Z,86.0714
2024-05-09T03:52:44.024Z,85.9641
2024-05-09T03:53:44.273Z,86.1311
2024-05-09T03:54:46.434Z,86.1881
2024-05-09T03:55:48.620Z,86.0627
2024-05-09T03:56:50.938Z,86.0308
2024-05-09T03:57:53.271Z,86.0214
2024-05-09T03:58:55.592Z,86.1910
2024-05-09T03:59:57.744Z,86.2590
2024-05-09T04:01:00.963Z,86.2981
2024-05-09T04:02:01.995Z,86.1458
2024-05-09T04:03:02.330Z,86.0832
2024-05-09T04:04:02.510Z,86.0355
2024-05-09T04:05:04.893Z,85.9463
2024-05-09T04:06:05.411Z,85.9263
2024-05-09T04:07:05.273Z,85.9051
2024-05-09T04:08:07.710Z,85.9281
2024-05-09T04:09:07.639Z,85.7971
2024-05-09T04:10:16.994Z,85.7432
2024-05-09T04:11:10.992Z,85.7838
2024-05-09T04:12:12.023Z,85.8596
2024-05-09T04:13:13.015Z,85.7160
2024-05-09T04:14:15.293Z,85.7511
2024-05-09T04:15:15.580Z,85.6968
2024-05-09T04:16:17.755Z,85.5899
2024-05-09T04:17:20.595Z,85.7066
2024-05-09T04:18:22.442Z,85.7207
2024-05-09T04:19:24.640Z,85.7820
2024-05-09T04:20:33.909Z,85.6436
2024-05-09T04:21:25.563Z,85.4828
2024-05-09T04:22:27.718Z,85.3114
2024-05-09T04:23:30.009Z,85.1080
2024-05-09T04:24:29.998Z,85.2746
2024-05-09T04:25:32.275Z,85.3558
2024-05-09T04:26:34.627Z,85.4844
2024-05-09T04:27:37.832Z,85.4398
2024-05-09T04:28:37.707Z,85.4389
2024-05-09T04:29:40.028Z,85.4577
2024-05-09T04:30:42.684Z,85.3657
2024-05-09T04:31:43.022Z,85.4757
2024-05-09T04:32:45.427Z,85.5491
2024-05-09T04:33:46.732Z,85.4696
2024-05-09T04:34:46.752Z,85.3865
2024-05-09T04:35:48.999Z,85.4145
2024-05-09T04:36:51.180Z,85.3419
2024-05-09T04:37:51.469Z,85.5272
2024-05-09T04:38:53.677Z,85.5303
2024-05-09T04:39:55.920Z,85.4305
2024-05-09T04:40:58.103Z,85.4327
2024-05-09T04:42:00.293Z,85.2142
2024-05-09T04:43:02.382Z,85.4233
2024-05-09T04:44:04.548Z,85.3756
2024-05-09T04:45:06.692Z,85.3323
2024-05-09T04:46:08.902Z,85.3239
2024-05-09T04:47:11.986Z,85.3317
2024-05-09T04:48:12.177Z,85.4328
2024-05-09T04:49:12.106Z,85.2407
2024-05-09T04:50:21.182Z,85.1315
2024-05-09T04:51:15.381Z,85.2044
2024-05-09T04:52:18.376Z,85.2095
2024-05-09T04:53:18.428Z,85.3042
2024-05-09T04:54:26.209Z,85.2052
2024-05-09T04:55:19.449Z,85.1497
2024-05-09T04:56:21.644Z,85.2863
2024-05-09T04:57:23.880Z,85.3151
2024-05-09T04:58:25.980Z,85.2536
2024-05-09T04:59:28.328Z,85.2057
2024-05-09T05:00:35.035Z,85.3655
2024-05-09T05:01:29.292Z,85.2291
2024-05-09T05:02:31.616Z,85.1280
2024-05-09T05:03:34.036Z,85.2894
2024-05-09T05:04:33.998Z,85.3257
2024-05-09T05:05:36.266Z,85.2796
2024-05-09T05:06:38.544Z,85.1794
2024-05-09T05:07:40.648Z,84.8464
2024-05-09T05:08:42.863Z,84.9553
2024-05-09T05:09:45.024Z,85.1519
2024-05-09T05:10:47.945Z,84.9898
2024-05-09T05:11:49.572Z,84.8934
2024-05-09T05:12:51.521Z,84.9808
2024-05-09T05:13:52.475Z,85.1260
2024-05-09T05:14:54.957Z,85.3707
2024-05-09T05:15:54.860Z,85.3287
2024-05-09T05:16:55.772Z,85.3515
2024-05-09T05:17:55.884Z,85.2412
2024-05-09T05:18:56.130Z,85.2390
2024-05-09T05:19:57.250Z,85.2247
2024-05-09T05:20:57.397Z,85.2555
2024-05-09T05:21:57.448Z,85.2634
2024-05-09T05:22:58.256Z,85.1302
2024-05-09T05:24:00.560Z,85.1175
2024-05-09T05:25:02.877Z,85.0600
2024-05-09T05:26:03.305Z,84.9171
2024-05-09T05:27:04.240Z,84.9462
2024-05-09T05:28:06.568Z,84.9886
2024-05-09T05:29:08.905Z,85.1176
2024-05-09T05:30:17.628Z,85.1816
2024-05-09T05:31:13.097Z,85.1956
2024-05-09T05:32:13.194Z,85.1938
2024-05-09T05:33:13.582Z,85.3424
2024-05-09T05:34:14.123Z,85.4890
2024-05-09T05:35:16.401Z,85.4837
2024-05-09T05:36:16.346Z,85.5549
2024-05-09T05:37:18.505Z,85.5978
2024-05-09T05:38:24.827Z,85.6096
2024-05-09T05:39:21.866Z,85.6488
2024-05-09T05:40:32.356Z,85.6648
2024-05-09T05:41:25.452Z,85.5739
2024-05-09T05:42:25.753Z,85.3253
2024-05-09T05:43:28.035Z,85.1718
2024-05-09T05:44:30.432Z,85.2844
2024-05-09T05:45:30.358Z,85.3697
2024-05-09T05:46:32.683Z,85.1322
2024-05-09T05:47:35.218Z,85.1157
2024-05-09T05:48:35.331Z,85.2766
2024-05-09T05:49:37.820Z,85.4162
2024-05-09T05:50:38.779Z,85.5308
2024-05-09T05:51:38.954Z,85.4484
2024-05-09T05:52:41.245Z,85.6140
2024-05-09T05:53:42.288Z,85.6732
2024-05-09T05:54:42.282Z,85.7281
2024-05-09T05:55:44.718Z,85.6604
2024-05-09T05:56:44.996Z,85.4360
2024-05-09T05:57:45.135Z,85.1373
2024-05-09T05:58:47.378Z,85.2290
2024-05-09T05:59:49.677Z,85.2551
2024-05-09T06:00:52.413Z,85.2331
2024-05-09T06:01:52.365Z,85.2074
2024-05-09T06:02:52.462Z,85.2924
2024-05-09T06:03:53.484Z,85.4339
2024-05-09T06:04:54.046Z,85.3800
2024-05-09T06:05:54.120Z,85.2841
2024-05-09T06:06:56.353Z,85.2786
2024-05-09T06:07:58.698Z,85.2906
2024-05-09T06:08:58.982Z,85.2176
2024-05-09T06:10:01.280Z,85.1249
2024-05-09T06:11:03.751Z,85.0878
2024-05-09T06:12:03.831Z,85.0385
2024-05-09T06:13:05.365Z,84.7486
2024-05-09T06:14:05.282Z,84.7644
2024-05-09T06:15:07.649Z,84.7333
2024-05-09T06:16:09.959Z,84.4377
2024-05-09T06:17:12.399Z,84.2395
2024-05-09T06:18:13.014Z,84.3559
2024-05-09T06:19:13.218Z,84.2752
2024-05-09T06:20:20.560Z,84.2308
2024-05-09T06:21:15.482Z,83.9344
2024-05-09T06:22:15.960Z,83.8840
2024-05-09T06:23:18.214Z,83.9677
2024-05-09T06:24:18.598Z,83.7625
2024-05-09T06:25:20.839Z,83.5157
2024-05-09T06:26:23.223Z,83.2166
2024-05-09T06:27:23.963Z,82.6487
2024-05-09T06:28:23.788Z,82.1339
2024-05-09T06:29:26.144Z,82.4258
2024-05-09T06:30:34.902Z,82.4859
2024-05-09T06:31:27.010Z,82.3910
2024-05-09T06:32:29.321Z,82.4089
2024-05-09T06:33:29.585Z,82.2361
2024-05-09T06:34:29.783Z,81.7326
2024-05-09T06:35:29.858Z,82.1220
2024-05-09T06:36:30.402Z,81.6801
2024-05-09T06:37:30.303Z,81.5689
2024-05-09T06:38:32.591Z,81.7477
2024-05-09T06:39:32.543Z,81.1956
2024-05-09T06:40:38.323Z,81.2275
2024-05-09T06:41:35.849Z,81.2077
2024-05-09T06:42:38.070Z,81.4268
2024-05-09T06:43:40.131Z,81.4140
2024-05-09T06:44:42.291Z,81.2479
2024-05-09T06:45:44.481Z,81.1440
2024-05-09T06:46:46.868Z,80.9857
2024-05-09T06:47:46.954Z,80.7328
2024-05-09T06:48:50.503Z,80.4940
2024-05-09T06:49:50.623Z,80.5098
2024-05-09T06:50:50.726Z,80.3925
2024-05-09T06:51:50.751Z,79.8193
2024-05-09T06:52:52.915Z,79.4332
2024-05-09T06:53:55.067Z,79.3345
2024-05-09T06:54:57.356Z,79.3706
2024-05-09T06:55:59.630Z,79.6021
2024-05-09T06:57:01.932Z,79.7668
2024-05-09T06:58:03.993Z,79.7942
2024-05-09T06:59:06.325Z,79.4342
2024-05-09T07:00:15.466Z,79.3324
2024-05-09T07:01:09.600Z,79.6252
2024-05-09T07:02:09.635Z,79.9384
2024-05-09T07:03:10.078Z,80.2938
2024-05-09T07:04:11.303Z,80.2806
2024-05-09T07:05:11.627Z,80.3740
2024-05-09T07:06:11.656Z,80.4126
2024-05-09T07:07:14.045Z,80.2733
2024-05-09T07:08:16.554Z,80.1779
2024-05-09T07:09:16.789Z,80.2422
2024-05-09T07:10:22.143Z,80.0869
2024-05-09T07:11:18.025Z,79.9910
2024-05-09T07:12:19.090Z,79.7026
2024-05-09T07:13:19.107Z,79.6697
2024-05-09T07:14:21.552Z,79.5637
2024-05-09T07:15:21.795Z,79.3591
2024-05-09T07:16:21.800Z,79.2510
2024-05-09T07:17:24.240Z,79.3797
2024-05-09T07:18:24.504Z,79.3068
2024-05-09T07:19:25.012Z,79.4671
2024-05-09T07:20:32.491Z,79.4493
2024-05-09T07:21:26.093Z,79.2735
2024-05-09T07:22:25.976Z,78.9523
2024-05-09T07:23:26.044Z,78.4536
2024-05-09T07:24:26.042Z,78.2057
2024-05-09T07:25:28.369Z,78.7352
2024-05-09T07:26:28.329Z,79.0057
2024-05-09T07:27:29.916Z,78.9695
2024-05-09T07:28:30.073Z,78.2463
2024-05-09T07:29:34.714Z,78.4678
2024-05-09T07:30:34.765Z,78.2958
2024-05-09T07:31:35.162Z,78.8003
2024-05-09T07:32:37.567Z,78.5850
2024-05-09T07:33:38.570Z,78.4498
2024-05-09T07:34:38.634Z,78.6283
2024-05-09T07:35:38.839Z,78.9350
2024-05-09T07:36:39.886Z,78.5461
2024-05-09T07:37:42.215Z,78.4150
2024-05-09T07:38:42.242Z,78.5693
2024-05-09T07:39:42.552Z,78.4257
2024-05-09T07:40:42.575Z,78.4804
2024-05-09T07:41:44.912Z,78.5855
2024-05-09T07:42:44.995Z,78.9914
2024-05-09T07:43:47.329Z,78.7514
2024-05-09T07:44:49.573Z,78.5614
2024-05-09T07:45:54.468Z,78.7111
2024-05-09T07:48:13.727Z,78.4285
2024-05-09T07:50:34.746Z,78.0068
2024-05-09T07:53:22.002Z,77.7686
2024-05-09T07:54:01.395Z,77.5344
2024-05-09T07:55:02.035Z,77.9162
2024-05-09T07:56:02.171Z,77.3158
2024-05-09T07:57:03.385Z,77.4832
2024-05-09T07:58:03.485Z,77.6690
2024-05-09T07:59:05.812Z,77.1001
2024-05-09T08:00:06.680Z,77.6083
2024-05-09T08:01:07.043Z,77.3529
2024-05-09T08:02:07.086Z,77.1914
2024-05-09T08:03:07.013Z,77.2850
2024-05-09T08:04:09.274Z,76.5759
2024-05-09T08:05:09.388Z,76.1573
2024-05-09T08:06:10.390Z,76.4525
2024-05-09T08:07:12.697Z,76.2468
2024-05-09T08:08:14.997Z,76.1677
2024-05-09T08:09:21.013Z,75.5332
2024-05-09T08:10:22.107Z,75.1569
2024-05-09T08:11:18.310Z,74.9342
2024-05-09T08:12:20.612Z,74.7652
2024-05-09T08:13:23.135Z,74.9803
2024-05-09T08:14:23.196Z,75.5130
2024-05-09T08:15:25.486Z,74.9789
2024-05-09T08:16:25.578Z,74.8211
2024-05-09T08:17:25.569Z,75.4089
2024-05-09T08:18:27.990Z,75.2690
2024-05-09T08:19:28.085Z,75.2073
2024-05-09T08:20:33.720Z,75.4776
2024-05-09T08:21:31.482Z,75.6950
2024-05-09T08:22:32.439Z,75.5948
2024-05-09T08:23:34.700Z,75.4384
2024-05-09T08:24:36.984Z,76.1408
2024-05-09T08:25:39.196Z,76.2794
2024-05-09T08:26:41.466Z,76.3942
2024-05-09T08:27:42.555Z,76.2333
2024-05-09T08:28:42.416Z,76.1078
2024-05-09T08:29:44.713Z,76.3154
2024-05-09T08:30:44.840Z,76.4031
2024-05-09T08:31:45.839Z,76.4838
2024-05-09T08:32:48.353Z,76.6826
2024-05-09T08:33:48.668Z,76.8067
2024-05-09T08:34:48.721Z,76.2026
2024-05-09T08:35:50.024Z,76.2676
2024-05-09T08:36:52.376Z,76.5489
2024-05-09T08:37:53.069Z,76.4729
2024-05-09T08:38:53.062Z,76.2772
2024-05-09T08:39:53.204Z,76.4019
2024-05-09T08:40:55.593Z,76.5254
2024-05-09T08:41:55.650Z,76.1503
2024-05-09T08:42:57.874Z,76.5198
2024-05-09T08:44:00.121Z,76.0494
2024-05-09T08:45:02.303Z,75.7753
2024-05-09T08:46:02.393Z,75.4571
2024-05-09T08:47:02.981Z,74.7178
2024-05-09T08:48:05.421Z,75.0002
2024-05-09T08:49:06.058Z,74.8658
2024-05-09T08:50:08.570Z,74.7743
2024-05-09T08:51:06.583Z,74.2767
2024-05-09T08:52:07.546Z,74.8047
2024-05-09T08:53:07.856Z,74.8686
2024-05-09T08:54:07.937Z,74.8707
2024-05-09T08:55:10.363Z,74.8776
2024-05-09T08:56:10.502Z,75.0124
2024-05-09T08:57:12.721Z,74.7483
2024-05-09T08:58:15.353Z,74.8464
2024-05-09T08:59:16.168Z,74.8592
2024-05-09T09:00:29.049Z,74.5454
2024-05-09T09:01:19.702Z,74.5341
2024-05-09T09:02:21.293Z,74.4847
2024-05-09T09:03:21.850Z,74.1194
2024-05-09T09:04:24.259Z,74.3890
2024-05-09T09:05:24.426Z,74.4336
2024-05-09T09:06:24.357Z,74.4903
2024-05-09T09:07:26.784Z,74.5755
2024-05-09T09:08:27.683Z,74.4947
2024-05-09T09:09:27.996Z,74.6490
2024-05-09T09:10:32.360Z,74.5314
2024-05-09T09:11:30.827Z,74.4318
2024-05-09T09:12:33.107Z,74.6650
2024-05-09T09:13:35.350Z,74.6918
2024-05-09T09:14:37.596Z,74.5702
2024-05-09T09:15:37.664Z,74.2441
2024-05-09T09:16:39.938Z,73.7149
2024-05-09T09:17:42.387Z,73.7342
2024-05-09T09:18:42.644Z,73.6025
2024-05-09T09:19:42.584Z,73.0155
2024-05-09T09:20:45.005Z,73.1267
2024-05-09T09:21:45.060Z,73.3891
2024-05-09T09:22:45.122Z,73.5158
2024-05-09T09:23:47.527Z,73.8730
2024-05-09T09:24:49.724Z,73.5009
2024-05-09T09:25:50.863Z,73.9129
2024-05-09T09:26:51.713Z,73.4232
2024-05-09T09:27:53.991Z,73.2487
2024-05-09T09:28:54.037Z,73.2014
2024-05-09T09:29:56.322Z,72.9263
2024-05-09T09:30:56.238Z,73.0850
2024-05-09T09:31:58.466Z,72.9735
2024-05-09T09:33:01.009Z,71.8617
2024-05-09T09:34:01.283Z,72.5480
2024-05-09T09:35:01.395Z,72.9933
2024-05-09T09:36:01.531Z,73.5801
2024-05-09T09:37:03.823Z,73.7483
2024-05-09T09:38:03.823Z,73.6367
2024-05-09T09:39:06.062Z,73.7724
2024-05-09T09:40:08.949Z,73.7386
2024-05-09T09:41:08.895Z,73.9695
2024-05-09T09:42:09.804Z,73.8572
2024-05-09T09:43:12.212Z,72.8558
2024-05-09T09:44:12.279Z,72.8250
2024-05-09T09:45:14.632Z,72.7766
2024-05-09T09:46:17.121Z,72.9298
2024-05-09T09:47:17.373Z,73.2671
2024-05-09T09:48:19.748Z,73.0250
2024-05-09T09:49:21.538Z,72.6163
2024-05-09T09:50:27.706Z,72.4393
2024-05-09T09:51:22.620Z,72.7734
2024-05-09T09:52:23.028Z,72.8214
2024-05-09T09:53:22.931Z,72.4087
2024-05-09T09:54:25.231Z,72.3463
2024-05-09T09:55:26.062Z,72.1305
2024-05-09T09:56:25.959Z,71.2373
2024-05-09T09:57:26.221Z,70.9934
2024-05-09T09:58:28.563Z,70.1919
2024-05-09T09:59:28.524Z,69.5017
2024-05-09T10:00:33.290Z,69.1484
2024-05-09T10:01:31.911Z,69.4341
2024-05-09T10:02:32.172Z,69.9066
2024-05-09T10:03:32.342Z,69.0192
2024-05-09T10:04:33.417Z,67.8451
2024-05-09T10:05:33.717Z,68.3552
2024-05-09T10:06:33.755Z,68.4583
2024-05-09T10:07:35.924Z,67.7918
2024-05-09T10:08:38.038Z,66.4947
2024-05-09T10:09:40.283Z,65.8845
2024-05-09T10:10:42.690Z,66.6384
2024-05-09T10:12:44.854Z,64.7936
2024-05-09T10:13:47.071Z,64.8164
2024-05-09T10:14:49.367Z,65.7927
2024-05-09T10:15:52.146Z,66.0683
2024-05-09T10:16:52.295Z,66.5271
2024-05-09T10:17:54.712Z,67.5895
2024-05-09T10:18:54.822Z,67.4678
2024-05-09T10:19:54.864Z,67.3360
2024-05-09T10:20:54.932Z,68.3350
2024-05-09T10:21:57.258Z,68.1788
2024-05-09T10:22:57.328Z,67.9819
2024-05-09T10:23:57.645Z,68.4258
2024-05-09T10:25:01.505Z,67.8518
2024-05-09T10:26:03.790Z,67.0210
2024-05-09T10:27:03.616Z,66.5808
2024-05-09T10:28:04.135Z,66.8117
2024-05-09T10:29:06.439Z,66.8318
2024-05-09T10:30:14.412Z,66.7058
2024-05-09T10:31:09.701Z,66.3420
2024-05-09T10:32:11.920Z,66.9467
2024-05-09T10:33:13.008Z,66.8378
2024-05-09T10:34:13.172Z,67.1055
2024-05-09T10:35:13.146Z,66.9035
2024-05-09T10:36:13.319Z,66.3400
2024-05-09T10:37:15.695Z,66.7218
2024-05-09T10:38:15.637Z,65.1353
2024-05-09T10:39:16.014Z,64.3165
2024-05-09T10:40:25.778Z,65.6566
2024-05-09T10:41:19.112Z,66.4992
2024-05-09T10:42:21.311Z,65.7283
2024-05-09T10:43:21.336Z,65.5903
2024-05-09T10:44:21.153Z,66.6504
2024-05-09T10:45:23.487Z,66.5462
2024-05-09T10:46:25.759Z,66.8457
2024-05-09T10:47:28.199Z,67.4936
2024-05-09T10:48:29.323Z,66.5388
2024-05-09T10:49:29.267Z,66.3406
2024-05-09T10:50:34.238Z,67.2770
2024-05-09T10:51:33.226Z,67.1436
2024-05-09T10:52:35.519Z,66.5488
2024-05-09T10:53:37.859Z,66.4179
2024-05-09T10:54:37.894Z,65.7792
2024-05-09T10:55:37.881Z,64.7302
2024-05-09T10:56:37.768Z,63.8928
2024-05-09T10:57:39.986Z,64.9672
2024-05-09T10:58:42.401Z,65.7352
2024-05-09T10:59:42.371Z,66.3028
2024-05-09T11:00:44.794Z,65.1669
2024-05-09T11:01:45.018Z,65.5837
2024-05-09T11:02:45.053Z,65.1159
2024-05-09T11:03:47.572Z,65.0102
2024-05-09T11:04:47.951Z,65.0827
2024-05-09T11:05:47.997Z,64.3378
2024-05-09T11:06:48.073Z,64.9509
2024-05-09T11:07:50.570Z,64.4347
2024-05-09T11:08:50.486Z,64.1577
2024-05-09T11:09:52.903Z,64.3795
2024-05-09T11:10:53.039Z,64.4655
2024-05-09T11:11:53.226Z,63.8469
2024-05-09T11:12:53.293Z,63.1324
2024-05-09T11:13:55.546Z,62.1258
2024-05-09T11:14:57.860Z,63.5783
2024-05-09T11:16:00.179Z,63.3597
2024-05-09T11:17:00.276Z,62.5522
2024-05-09T11:18:02.782Z,63.6480
2024-05-09T11:19:04.916Z,63.2568
2024-05-09T11:20:10.773Z,61.7689
2024-05-09T11:21:06.106Z,60.9758
2024-05-09T11:22:08.570Z,61.2279
2024-05-09T11:23:08.578Z,61.2077
2024-05-09T11:24:11.482Z,58.7606
2024-05-09T11:25:11.853Z,59.7512
2024-05-09T11:26:12.590Z,61.0855
2024-05-09T11:27:12.522Z,61.5062
2024-05-09T11:28:15.046Z,60.8966
2024-05-09T11:29:17.935Z,61.5921
2024-05-09T11:30:24.190Z,62.1840
2024-05-09T11:31:18.255Z,61.9698
2024-05-09T11:32:18.302Z,62.1858
2024-05-09T11:33:19.220Z,62.0647
2024-05-09T11:34:19.373Z,62.2294
2024-05-09T11:35:19.637Z,62.0502
2024-05-09T11:36:19.555Z,62.1546
2024-05-09T11:37:19.635Z,61.4497
2024-05-09T11:38:19.584Z,61.7572
2024-05-09T11:39:21.779Z,61.8172
2024-05-09T11:40:26.035Z,61.5206
2024-05-09T11:41:25.076Z,61.6714
2024-05-09T11:42:25.206Z,60.7993
2024-05-09T11:43:25.475Z,60.5558
2024-05-09T11:44:25.341Z,59.9229
2024-05-09T11:45:27.554Z,60.2413
2024-05-09T11:46:29.703Z,59.6300
2024-05-09T11:47:32.075Z,59.3504
2024-05-09T11:48:32.331Z,60.5452
2024-05-09T11:49:32.613Z,62.1500
2024-05-09T11:50:35.498Z,61.7714
2024-05-09T11:51:33.432Z,61.9888
2024-05-09T11:52:35.665Z,60.8046
2024-05-09T11:53:37.818Z,61.1563
2024-05-09T11:54:40.114Z,61.5186
2024-05-09T11:55:42.284Z,61.6876
2024-05-09T11:56:44.513Z,62.3742
2024-05-09T11:57:46.848Z,63.1451
2024-05-09T11:58:47.136Z,63.3981
2024-05-09T11:59:50.061Z,64.0576
2024-05-09T12:00:50.044Z,64.3171
2024-05-09T12:01:50.295Z,64.0514
2024-05-09T12:02:50.318Z,63.9453
2024-05-09T12:03:52.743Z,64.5758
2024-05-09T12:04:52.814Z,64.5593
2024-05-09T12:05:55.060Z,63.9240
2024-05-09T12:06:57.326Z,63.3331
2024-05-09T12:07:59.450Z,63.4292
2024-05-09T12:09:01.622Z,63.2891
2024-05-09T12:10:06.080Z,62.7268
2024-05-09T12:11:05.753Z,60.5323
2024-05-09T12:12:08.038Z,61.2089
2024-05-09T12:13:10.400Z,60.9983
2024-05-09T12:14:12.676Z,59.4747
2024-05-09T12:15:14.996Z,60.6843
2024-05-09T12:16:17.301Z,61.1677
2024-05-09T12:17:19.609Z,61.5064
2024-05-09T12:18:21.801Z,62.3432
2024-05-09T12:19:24.049Z,61.6205
2024-05-09T12:20:34.727Z,61.0355
2024-05-09T12:21:27.285Z,62.5413
2024-05-09T12:22:29.455Z,61.0919
2024-05-09T12:23:31.641Z,60.6209
2024-05-09T12:24:33.872Z,60.7304
2024-05-09T12:25:36.970Z,59.9845
2024-05-09T12:26:39.133Z,59.2442